sensor_id;sensor_type;location;lat;lon;timestamp;temperature;humidity
17333;DHT22;8784;50.94667800;7.08448400;2022-12-05T00:00:23;5.80;99.90
17333;DHT22;8784;50.94667800;7.08448400;2022-12-05T00:02:49;5.80;99.90
17333;DHT22;8784;50.94667800;7.08448400;2022-12-05T00:05:16;5.80;99.90
17333;DHT22;8784;50.94667800;7.08448400;2022-12-05T00:07:43;5.80;99.90
17333;DHT22;8784;50.94667800;7.08448400;2022-12-05T00:10:11;5.80;99.90
17333;DHT22;8784;50.94667800;7.08448400;2022-12-05T00:12:37;5.80;99.90
17333;DHT22;8784;50.94667800;7.08448400;2022-12-05T00:15:05;5.80;99.90
17333;DHT22;8784;50.94667800;7.08448400;2022-12-05T00:17:35;5.80;99.90
17333;DHT22;8784;50.94667800;7.08448400;2022-12-05T00:20:02;5.80;99.90
17333;DHT22;8784;50.94667800;7.08448400;2022-12-05T00:22:29;5.80;99.90
17333;DHT22;8784;50.94667800;7.08448400;2022-12-05T00:24:56;5.80;99.90
17333;DHT22;8784;50.94667800;7.08448400;2022-12-05T00:27:22;5.80;99.90
17333;DHT22;8784;50.94667800;7.08448400;2022-12-05T00:29:49;5.80;99.90
17333;DHT22;8784;50.94667800;7.08448400;2022-12-05T00:32:16;5.80;99.90
17333;DHT22;8784;50.94667800;7.08448400;2022-12-05T00:34:45;5.80;99.90
17333;DHT22;8784;50.94667800;7.08448400;2022-12-05T00:37:11;5.80;99.90
17333;DHT22;8784;50.94667800;7.08448400;2022-12-05T00:39:38;5.80;99.90
17333;DHT22;8784;50.94667800;7.08448400;2022-12-05T00:42:05;5.80;99.90
17333;DHT22;8784;50.94667800;7.08448400;2022-12-05T00:44:32;5.80;99.90
17333;DHT22;8784;50.94667800;7.08448400;2022-12-05T00:46:59;5.80;99.90
17333;DHT22;8784;50.94667800;7.08448400;2022-12-05T00:49:26;5.80;99.90
17333;DHT22;8784;50.94667800;7.08448400;2022-12-05T00:51:54;5.80;99.90
17333;DHT22;8784;50.94667800;7.08448400;2022-12-05T00:54:21;5.80;99.90
17333;DHT22;8784;50.94667800;7.08448400;2022-12-05T00:56:48;5.80;99.90
17333;DHT22;8784;50.94667800;7.08448400;2022-12-05T00:59:18;5.80;99.90
17333;DHT22;8784;50.94667800;7.08448400;2022-12-05T01:01:46;5.80;99.90
17333;DHT22;8784;50.94667800;7.08448400;2022-12-05T01:04:15;5.90;99.90
17333;DHT22;8784;50.94667800;7.08448400;2022-12-05T01:06:43;5.90;99.90
17333;DHT22;8784;50.94667800;7.08448400;2022-12-05T01:09:13;5.90;99.90
17333;DHT22;8784;50.94667800;7.08448400;2022-12-05T01:11:41;5.90;99.90
17333;DHT22;8784;50.94667800;7.08448400;2022-12-05T01:14:08;5.80;99.90
17333;DHT22;8784;50.94667800;7.08448400;2022-12-05T01:16:37;5.90;99.90
17333;DHT22;8784;50.94667800;7.08448400;2022-12-05T01:19:07;5.80;99.90
17333;DHT22;8784;50.94667800;7.08448400;2022-12-05T01:21:34;5.80;99.90
17333;DHT22;8784;50.94667800;7.08448400;2022-12-05T01:24:01;5.80;99.90
17333;DHT22;8784;50.94667800;7.08448400;2022-12-05T01:26:30;5.90;99.90
17333;DHT22;8784;50.94667800;7.08448400;2022-12-05T01:28:56;5.80;99.90
17333;DHT22;8784;50.94667800;7.08448400;2022-12-05T01:31:25;5.80;99.90
17333;DHT22;8784;50.94667800;7.08448400;2022-12-05T01:33:53;5.70;99.90
17333;DHT22;8784;50.94667800;7.08448400;2022-12-05T01:36:21;5.80;99.90
17333;DHT22;8784;50.94667800;7.08448400;2022-12-05T01:38:48;5.80;99.90
17333;DHT22;8784;50.94667800;7.08448400;2022-12-05T01:41:17;5.70;99.90
17333;DHT22;8784;50.94667800;7.08448400;2022-12-05T01:44:00;5.70;99.90
17333;DHT22;8784;50.94667800;7.08448400;2022-12-05T01:46:29;5.70;99.90
17333;DHT22;8784;50.94667800;7.08448400;2022-12-05T01:49:00;5.70;99.90
17333;DHT22;8784;50.94667800;7.08448400;2022-12-05T01:51:29;5.70;99.90
17333;DHT22;8784;50.94667800;7.08448400;2022-12-05T01:53:56;5.70;99.90
17333;DHT22;8784;50.94667800;7.08448400;2022-12-05T01:56:24;5.70;99.90
17333;DHT22;8784;50.94667800;7.08448400;2022-12-05T01:58:52;5.60;99.90
17333;DHT22;8784;50.94667800;7.08448400;2022-12-05T02:01:20;5.70;99.90
17333;DHT22;8784;50.94667800;7.08448400;2022-12-05T02:03:50;5.70;99.90
17333;DHT22;8784;50.94667800;7.08448400;2022-12-05T02:06:18;5.70;99.90
17333;DHT22;8784;50.94667800;7.08448400;2022-12-05T02:08:46;5.70;99.90
17333;DHT22;8784;50.94667800;7.08448400;2022-12-05T02:11:13;5.70;99.90
17333;DHT22;8784;50.94667800;7.08448400;2022-12-05T02:13:54;5.70;99.90
17333;DHT22;8784;50.94667800;7.08448400;2022-12-05T02:16:31;5.70;99.90
17333;DHT22;8784;50.94667800;7.08448400;2022-12-05T02:19:18;5.70;99.90
17333;DHT22;8784;50.94667800;7.08448400;2022-12-05T02:22:05;5.70;99.90
17333;DHT22;8784;50.94667800;7.08448400;2022-12-05T02:24:54;5.70;99.90
17333;DHT22;8784;50.94667800;7.08448400;2022-12-05T02:27:45;5.60;99.90
17333;DHT22;8784;50.94667800;7.08448400;2022-12-05T02:30:17;5.60;99.90
17333;DHT22;8784;50.94667800;7.08448400;2022-12-05T02:33:02;5.60;99.90
17333;DHT22;8784;50.94667800;7.08448400;2022-12-05T02:35:40;5.50;99.90
17333;DHT22;8784;50.94667800;7.08448400;2022-12-05T02:38:16;5.60;99.90
17333;DHT22;8784;50.94667800;7.08448400;2022-12-05T02:40:51;5.50;99.90
17333;DHT22;8784;50.94667800;7.08448400;2022-12-05T02:43:25;5.50;99.90
17333;DHT22;8784;50.94667800;7.08448400;2022-12-05T02:45:59;5.50;99.90
17333;DHT22;8784;50.94667800;7.08448400;2022-12-05T02:48:28;5.40;99.90
17333;DHT22;8784;50.94667800;7.08448400;2022-12-05T02:50:56;5.40;99.90
17333;DHT22;8784;50.94667800;7.08448400;2022-12-05T02:53:26;5.40;99.90
17333;DHT22;8784;50.94667800;7.08448400;2022-12-05T02:55:54;5.40;99.90
17333;DHT22;8784;50.94667800;7.08448400;2022-12-05T02:58:24;5.40;99.90
17333;DHT22;8784;50.94667800;7.08448400;2022-12-05T03:00:56;5.30;99.90
17333;DHT22;8784;50.94667800;7.08448400;2022-12-05T03:03:24;5.20;99.90
17333;DHT22;8784;50.94667800;7.08448400;2022-12-05T03:05:57;5.10;99.90
17333;DHT22;8784;50.94667800;7.08448400;2022-12-05T03:08:29;4.90;99.90
17333;DHT22;8784;50.94667800;7.08448400;2022-12-05T03:10:58;4.80;99.90
17333;DHT22;8784;50.94667800;7.08448400;2022-12-05T03:13:28;4.70;99.90
17333;DHT22;8784;50.94667800;7.08448400;2022-12-05T03:16:02;4.70;99.90
17333;DHT22;8784;50.94667800;7.08448400;2022-12-05T03:18:35;4.70;99.90
17333;DHT22;8784;50.94667800;7.08448400;2022-12-05T03:21:06;4.70;99.90
17333;DHT22;8784;50.94667800;7.08448400;2022-12-05T03:23:38;4.70;99.90
17333;DHT22;8784;50.94667800;7.08448400;2022-12-05T03:26:10;4.60;99.90
17333;DHT22;8784;50.94667800;7.08448400;2022-12-05T03:28:51;4.50;99.90
17333;DHT22;8784;50.94667800;7.08448400;2022-12-05T03:31:30;4.40;99.90
17333;DHT22;8784;50.94667800;7.08448400;2022-12-05T03:34:02;4.20;99.90
17333;DHT22;8784;50.94667800;7.08448400;2022-12-05T03:36:38;4.10;99.90
17333;DHT22;8784;50.94667800;7.08448400;2022-12-05T03:39:10;4.00;99.90
17333;DHT22;8784;50.94667800;7.08448400;2022-12-05T03:41:41;4.10;99.90
17333;DHT22;8784;50.94667800;7.08448400;2022-12-05T03:44:13;3.90;99.90
17333;DHT22;8784;50.94667800;7.08448400;2022-12-05T03:46:46;4.00;99.90
17333;DHT22;8784;50.94667800;7.08448400;2022-12-05T03:49:19;4.10;99.90
17333;DHT22;8784;50.94667800;7.08448400;2022-12-05T03:51:52;4.20;99.90
17333;DHT22;8784;50.94667800;7.08448400;2022-12-05T03:54:23;4.20;99.90
17333;DHT22;8784;50.94667800;7.08448400;2022-12-05T03:56:54;4.20;99.90
17333;DHT22;8784;50.94667800;7.08448400;2022-12-05T03:59:28;4.20;99.90
17333;DHT22;8784;50.94667800;7.08448400;2022-12-05T04:01:59;4.20;99.90
17333;DHT22;8784;50.94667800;7.08448400;2022-12-05T04:04:32;4.20;99.90
17333;DHT22;8784;50.94667800;7.08448400;2022-12-05T04:07:01;4.20;99.90
17333;DHT22;8784;50.94667800;7.08448400;2022-12-05T04:09:34;4.10;99.90
17333;DHT22;8784;50.94667800;7.08448400;2022-12-05T04:12:06;4.20;99.90
17333;DHT22;8784;50.94667800;7.08448400;2022-12-05T04:14:38;4.10;99.90
17333;DHT22;8784;50.94667800;7.08448400;2022-12-05T04:17:09;4.10;99.90
17333;DHT22;8784;50.94667800;7.08448400;2022-12-05T04:19:41;4.00;99.90
17333;DHT22;8784;50.94667800;7.08448400;2022-12-05T04:22:27;4.10;99.90
17333;DHT22;8784;50.94667800;7.08448400;2022-12-05T04:24:57;4.10;99.90
17333;DHT22;8784;50.94667800;7.08448400;2022-12-05T04:27:47;4.00;99.90
17333;DHT22;8784;50.94667800;7.08448400;2022-12-05T04:30:19;4.00;99.90
17333;DHT22;8784;50.94667800;7.08448400;2022-12-05T04:32:57;4.00;99.90
17333;DHT22;8784;50.94667800;7.08448400;2022-12-05T04:35:28;4.00;99.90
17333;DHT22;8784;50.94667800;7.08448400;2022-12-05T04:38:01;3.90;99.90
17333;DHT22;8784;50.94667800;7.08448400;2022-12-05T04:40:33;4.00;99.90
17333;DHT22;8784;50.94667800;7.08448400;2022-12-05T04:43:03;3.90;99.90
17333;DHT22;8784;50.94667800;7.08448400;2022-12-05T04:45:32;3.90;99.90
17333;DHT22;8784;50.94667800;7.08448400;2022-12-05T04:48:04;3.90;99.90
17333;DHT22;8784;50.94667800;7.08448400;2022-12-05T04:50:33;3.90;99.90
17333;DHT22;8784;50.94667800;7.08448400;2022-12-05T04:53:02;3.90;99.90
17333;DHT22;8784;50.94667800;7.08448400;2022-12-05T04:55:31;3.90;99.90
17333;DHT22;8784;50.94667800;7.08448400;2022-12-05T04:58:04;3.90;99.90
17333;DHT22;8784;50.94667800;7.08448400;2022-12-05T05:00:34;3.90;99.90
17333;DHT22;8784;50.94667800;7.08448400;2022-12-05T05:03:09;3.90;99.90
17333;DHT22;8784;50.94667800;7.08448400;2022-12-05T05:05:38;3.90;99.90
17333;DHT22;8784;50.94667800;7.08448400;2022-12-05T05:08:15;3.90;99.90
17333;DHT22;8784;50.94667800;7.08448400;2022-12-05T05:10:51;3.90;99.90
17333;DHT22;8784;50.94667800;7.08448400;2022-12-05T05:13:20;3.80;99.90
17333;DHT22;8784;50.94667800;7.08448400;2022-12-05T05:15:47;3.80;99.90
17333;DHT22;8784;50.94667800;7.08448400;2022-12-05T05:18:15;3.70;99.90
17333;DHT22;8784;50.94667800;7.08448400;2022-12-05T05:20:42;3.70;99.90
17333;DHT22;8784;50.94667800;7.08448400;2022-12-05T05:23:09;3.70;99.90
17333;DHT22;8784;50.94667800;7.08448400;2022-12-05T05:25:36;3.70;99.90
17333;DHT22;8784;50.94667800;7.08448400;2022-12-05T05:28:03;3.70;99.90
17333;DHT22;8784;50.94667800;7.08448400;2022-12-05T05:30:30;3.80;99.90
17333;DHT22;8784;50.94667800;7.08448400;2022-12-05T05:32:58;3.70;99.90
17333;DHT22;8784;50.94667800;7.08448400;2022-12-05T05:35:26;3.70;99.90
17333;DHT22;8784;50.94667800;7.08448400;2022-12-05T05:37:53;3.70;99.90
17333;DHT22;8784;50.94667800;7.08448400;2022-12-05T05:40:20;3.70;99.90
17333;DHT22;8784;50.94667800;7.08448400;2022-12-05T05:42:48;3.70;99.90
17333;DHT22;8784;50.94667800;7.08448400;2022-12-05T05:45:16;3.70;99.90
17333;DHT22;8784;50.94667800;7.08448400;2022-12-05T05:47:43;3.60;99.90
17333;DHT22;8784;50.94667800;7.08448400;2022-12-05T05:50:11;3.60;99.90
17333;DHT22;8784;50.94667800;7.08448400;2022-12-05T05:52:39;3.50;99.90
17333;DHT22;8784;50.94667800;7.08448400;2022-12-05T05:55:07;3.60;99.90
17333;DHT22;8784;50.94667800;7.08448400;2022-12-05T05:57:34;3.60;99.90
17333;DHT22;8784;50.94667800;7.08448400;2022-12-05T06:00:03;3.60;99.90
17333;DHT22;8784;50.94667800;7.08448400;2022-12-05T06:02:31;3.30;99.90
17333;DHT22;8784;50.94667800;7.08448400;2022-12-05T06:04:59;3.60;99.90
17333;DHT22;8784;50.94667800;7.08448400;2022-12-05T06:07:26;3.60;99.90
17333;DHT22;8784;50.94667800;7.08448400;2022-12-05T06:09:54;3.60;99.90
17333;DHT22;8784;50.94667800;7.08448400;2022-12-05T06:12:21;3.60;99.90
17333;DHT22;8784;50.94667800;7.08448400;2022-12-05T06:14:49;3.60;99.90
17333;DHT22;8784;50.94667800;7.08448400;2022-12-05T06:17:16;3.60;99.90
17333;DHT22;8784;50.94667800;7.08448400;2022-12-05T06:19:43;3.60;99.90
17333;DHT22;8784;50.94667800;7.08448400;2022-12-05T06:22:10;3.60;99.90
17333;DHT22;8784;50.94667800;7.08448400;2022-12-05T06:24:36;3.60;99.90
17333;DHT22;8784;50.94667800;7.08448400;2022-12-05T06:27:05;3.60;99.90
17333;DHT22;8784;50.94667800;7.08448400;2022-12-05T06:29:33;3.60;99.90
17333;DHT22;8784;50.94667800;7.08448400;2022-12-05T06:31:59;3.60;99.90
17333;DHT22;8784;50.94667800;7.08448400;2022-12-05T06:34:26;3.60;99.90
17333;DHT22;8784;50.94667800;7.08448400;2022-12-05T06:36:53;3.60;99.90
17333;DHT22;8784;50.94667800;7.08448400;2022-12-05T06:39:20;3.50;99.90
17333;DHT22;8784;50.94667800;7.08448400;2022-12-05T06:41:47;3.60;99.90
17333;DHT22;8784;50.94667800;7.08448400;2022-12-05T06:44:15;3.60;99.90
17333;DHT22;8784;50.94667800;7.08448400;2022-12-05T06:46:42;3.60;99.90
17333;DHT22;8784;50.94667800;7.08448400;2022-12-05T06:49:10;3.60;99.90
17333;DHT22;8784;50.94667800;7.08448400;2022-12-05T06:51:36;3.60;99.90
17333;DHT22;8784;50.94667800;7.08448400;2022-12-05T06:54:03;3.60;99.90
17333;DHT22;8784;50.94667800;7.08448400;2022-12-05T06:56:30;3.60;99.90
17333;DHT22;8784;50.94667800;7.08448400;2022-12-05T06:58:57;3.60;99.90
17333;DHT22;8784;50.94667800;7.08448400;2022-12-05T07:01:25;3.60;99.90
17333;DHT22;8784;50.94667800;7.08448400;2022-12-05T07:04:04;3.60;99.90
17333;DHT22;8784;50.94667800;7.08448400;2022-12-05T07:06:32;3.70;99.90
17333;DHT22;8784;50.94667800;7.08448400;2022-12-05T07:08:59;3.70;99.90
17333;DHT22;8784;50.94667800;7.08448400;2022-12-05T07:11:26;3.70;99.90
17333;DHT22;8784;50.94667800;7.08448400;2022-12-05T07:13:53;3.70;99.90
17333;DHT22;8784;50.94667800;7.08448400;2022-12-05T07:16:20;3.70;99.90
17333;DHT22;8784;50.94667800;7.08448400;2022-12-05T07:18:48;3.60;99.90
17333;DHT22;8784;50.94667800;7.08448400;2022-12-05T07:21:15;3.60;99.90
17333;DHT22;8784;50.94667800;7.08448400;2022-12-05T07:23:44;3.50;99.90
17333;DHT22;8784;50.94667800;7.08448400;2022-12-05T07:26:13;3.60;99.90
17333;DHT22;8784;50.94667800;7.08448400;2022-12-05T07:28:41;3.60;99.90
17333;DHT22;8784;50.94667800;7.08448400;2022-12-05T07:31:09;3.70;99.90
17333;DHT22;8784;50.94667800;7.08448400;2022-12-05T07:33:36;3.60;99.90
17333;DHT22;8784;50.94667800;7.08448400;2022-12-05T07:36:06;3.60;99.90
17333;DHT22;8784;50.94667800;7.08448400;2022-12-05T07:38:34;3.60;99.90
17333;DHT22;8784;50.94667800;7.08448400;2022-12-05T07:41:04;3.70;99.90
17333;DHT22;8784;50.94667800;7.08448400;2022-12-05T07:43:34;3.70;99.90
17333;DHT22;8784;50.94667800;7.08448400;2022-12-05T07:46:07;3.70;99.90
17333;DHT22;8784;50.94667800;7.08448400;2022-12-05T07:48:35;3.70;99.90
17333;DHT22;8784;50.94667800;7.08448400;2022-12-05T07:51:07;3.60;99.90
17333;DHT22;8784;50.94667800;7.08448400;2022-12-05T07:53:34;3.70;99.90
17333;DHT22;8784;50.94667800;7.08448400;2022-12-05T07:56:03;3.60;99.90
17333;DHT22;8784;50.94667800;7.08448400;2022-12-05T07:58:31;3.70;99.90
17333;DHT22;8784;50.94667800;7.08448400;2022-12-05T08:01:05;3.70;99.90
17333;DHT22;8784;50.94667800;7.08448400;2022-12-05T08:03:35;3.70;99.90
17333;DHT22;8784;50.94667800;7.08448400;2022-12-05T08:06:05;3.70;99.90
17333;DHT22;8784;50.94667800;7.08448400;2022-12-05T08:08:32;3.70;99.90
17333;DHT22;8784;50.94667800;7.08448400;2022-12-05T08:11:02;3.70;99.90
17333;DHT22;8784;50.94667800;7.08448400;2022-12-05T08:13:30;3.70;99.90
17333;DHT22;8784;50.94667800;7.08448400;2022-12-05T08:16:04;3.70;99.90
17333;DHT22;8784;50.94667800;7.08448400;2022-12-05T08:18:35;3.80;99.90
17333;DHT22;8784;50.94667800;7.08448400;2022-12-05T08:21:02;3.80;99.90
17333;DHT22;8784;50.94667800;7.08448400;2022-12-05T08:23:31;3.80;99.90
17333;DHT22;8784;50.94667800;7.08448400;2022-12-05T08:26:00;3.80;99.90
17333;DHT22;8784;50.94667800;7.08448400;2022-12-05T08:28:28;3.80;99.90
17333;DHT22;8784;50.94667800;7.08448400;2022-12-05T08:30:55;3.80;99.90
17333;DHT22;8784;50.94667800;7.08448400;2022-12-05T08:33:22;3.80;99.90
17333;DHT22;8784;50.94667800;7.08448400;2022-12-05T08:35:49;3.90;99.90
17333;DHT22;8784;50.94667800;7.08448400;2022-12-05T08:38:16;3.90;99.90
17333;DHT22;8784;50.94667800;7.08448400;2022-12-05T08:40:44;3.90;99.90
17333;DHT22;8784;50.94667800;7.08448400;2022-12-05T08:43:12;3.90;99.90
17333;DHT22;8784;50.94667800;7.08448400;2022-12-05T08:45:39;3.90;99.90
17333;DHT22;8784;50.94667800;7.08448400;2022-12-05T08:48:05;3.90;99.90
17333;DHT22;8784;50.94667800;7.08448400;2022-12-05T08:50:32;3.90;99.90
17333;DHT22;8784;50.94667800;7.08448400;2022-12-05T08:53:02;3.90;99.90
17333;DHT22;8784;50.94667800;7.08448400;2022-12-05T08:55:29;4.00;99.90
17333;DHT22;8784;50.94667800;7.08448400;2022-12-05T08:57:57;4.00;99.90
17333;DHT22;8784;50.94667800;7.08448400;2022-12-05T09:00:24;4.00;99.90
17333;DHT22;8784;50.94667800;7.08448400;2022-12-05T09:02:53;4.00;99.90
17333;DHT22;8784;50.94667800;7.08448400;2022-12-05T09:05:21;4.10;99.90
17333;DHT22;8784;50.94667800;7.08448400;2022-12-05T09:07:48;4.00;99.90
17333;DHT22;8784;50.94667800;7.08448400;2022-12-05T09:10:15;3.90;99.90
17333;DHT22;8784;50.94667800;7.08448400;2022-12-05T09:12:42;3.90;99.90
17333;DHT22;8784;50.94667800;7.08448400;2022-12-05T09:15:11;3.90;99.90
17333;DHT22;8784;50.94667800;7.08448400;2022-12-05T09:17:38;3.90;99.90
17333;DHT22;8784;50.94667800;7.08448400;2022-12-05T09:20:06;4.00;99.90
17333;DHT22;8784;50.94667800;7.08448400;2022-12-05T09:22:36;4.00;99.90
17333;DHT22;8784;50.94667800;7.08448400;2022-12-05T09:25:03;4.10;99.90
17333;DHT22;8784;50.94667800;7.08448400;2022-12-05T09:27:30;4.10;99.90
17333;DHT22;8784;50.94667800;7.08448400;2022-12-05T09:29:57;4.10;99.90
17333;DHT22;8784;50.94667800;7.08448400;2022-12-05T09:32:25;4.20;99.90
17333;DHT22;8784;50.94667800;7.08448400;2022-12-05T09:34:53;4.30;99.90
17333;DHT22;8784;50.94667800;7.08448400;2022-12-05T09:37:22;4.30;99.90
17333;DHT22;8784;50.94667800;7.08448400;2022-12-05T09:39:49;4.40;99.90
17333;DHT22;8784;50.94667800;7.08448400;2022-12-05T09:42:36;4.30;99.90
17333;DHT22;8784;50.94667800;7.08448400;2022-12-05T09:45:11;4.30;99.90
17333;DHT22;8784;50.94667800;7.08448400;2022-12-05T09:47:47;4.30;99.90
17333;DHT22;8784;50.94667800;7.08448400;2022-12-05T09:50:19;4.40;99.90
17333;DHT22;8784;50.94667800;7.08448400;2022-12-05T09:53:03;4.40;99.90
17333;DHT22;8784;50.94667800;7.08448400;2022-12-05T09:55:40;4.50;99.90
17333;DHT22;8784;50.94667800;7.08448400;2022-12-05T09:58:18;4.60;99.90
17333;DHT22;8784;50.94667800;7.08448400;2022-12-05T10:00:48;4.50;99.90
17333;DHT22;8784;50.94667800;7.08448400;2022-12-05T10:03:24;4.60;99.90
17333;DHT22;8784;50.94667800;7.08448400;2022-12-05T10:06:01;4.60;99.90
17333;DHT22;8784;50.94667800;7.08448400;2022-12-05T10:08:37;4.70;99.90
17333;DHT22;8784;50.94667800;7.08448400;2022-12-05T10:11:15;4.70;99.90
17333;DHT22;8784;50.94667800;7.08448400;2022-12-05T10:13:50;4.70;99.90
17333;DHT22;8784;50.94667800;7.08448400;2022-12-05T10:16:25;4.70;99.90
17333;DHT22;8784;50.94667800;7.08448400;2022-12-05T10:18:58;4.70;99.90
17333;DHT22;8784;50.94667800;7.08448400;2022-12-05T10:21:31;4.70;99.90
17333;DHT22;8784;50.94667800;7.08448400;2022-12-05T10:24:02;4.60;99.90
17333;DHT22;8784;50.94667800;7.08448400;2022-12-05T10:26:33;4.60;99.90
17333;DHT22;8784;50.94667800;7.08448400;2022-12-05T10:29:10;4.60;99.90
17333;DHT22;8784;50.94667800;7.08448400;2022-12-05T10:31:39;4.60;99.90
17333;DHT22;8784;50.94667800;7.08448400;2022-12-05T10:34:15;4.60;99.90
17333;DHT22;8784;50.94667800;7.08448400;2022-12-05T10:36:52;4.70;99.90
17333;DHT22;8784;50.94667800;7.08448400;2022-12-05T10:39:20;4.70;99.90
17333;DHT22;8784;50.94667800;7.08448400;2022-12-05T10:41:47;4.70;99.90
17333;DHT22;8784;50.94667800;7.08448400;2022-12-05T10:44:14;4.70;99.90
17333;DHT22;8784;50.94667800;7.08448400;2022-12-05T10:46:43;4.80;99.90
17333;DHT22;8784;50.94667800;7.08448400;2022-12-05T10:49:11;4.80;99.90
17333;DHT22;8784;50.94667800;7.08448400;2022-12-05T10:51:39;4.80;99.90
17333;DHT22;8784;50.94667800;7.08448400;2022-12-05T10:54:16;4.80;99.90
17333;DHT22;8784;50.94667800;7.08448400;2022-12-05T10:56:45;4.80;99.90
17333;DHT22;8784;50.94667800;7.08448400;2022-12-05T10:59:15;4.70;99.90
17333;DHT22;8784;50.94667800;7.08448400;2022-12-05T11:01:46;4.80;99.90
17333;DHT22;8784;50.94667800;7.08448400;2022-12-05T11:04:22;4.90;99.90
17333;DHT22;8784;50.94667800;7.08448400;2022-12-05T11:06:52;4.90;99.90
17333;DHT22;8784;50.94667800;7.08448400;2022-12-05T11:09:20;4.90;99.90
17333;DHT22;8784;50.94667800;7.08448400;2022-12-05T11:12:13;4.90;99.90
17333;DHT22;8784;50.94667800;7.08448400;2022-12-05T11:14:56;4.90;99.90
17333;DHT22;8784;50.94667800;7.08448400;2022-12-05T11:17:25;4.90;99.90
17333;DHT22;8784;50.94667800;7.08448400;2022-12-05T11:19:54;4.90;99.90
17333;DHT22;8784;50.94667800;7.08448400;2022-12-05T11:22:29;5.00;99.90
17333;DHT22;8784;50.94667800;7.08448400;2022-12-05T11:24:56;5.00;99.90
17333;DHT22;8784;50.94667800;7.08448400;2022-12-05T11:27:27;4.90;99.90
17333;DHT22;8784;50.94667800;7.08448400;2022-12-05T11:29:57;5.00;99.90
17333;DHT22;8784;50.94667800;7.08448400;2022-12-05T11:32:25;5.00;99.90
17333;DHT22;8784;50.94667800;7.08448400;2022-12-05T11:35:08;4.90;99.90
17333;DHT22;8784;50.94667800;7.08448400;2022-12-05T11:37:39;5.00;99.90
17333;DHT22;8784;50.94667800;7.08448400;2022-12-05T11:40:14;5.00;99.90
17333;DHT22;8784;50.94667800;7.08448400;2022-12-05T11:42:55;5.10;99.90
17333;DHT22;8784;50.94667800;7.08448400;2022-12-05T11:45:35;5.10;99.90
17333;DHT22;8784;50.94667800;7.08448400;2022-12-05T11:51:13;5.10;99.90
17333;DHT22;8784;50.94667800;7.08448400;2022-12-05T11:54:01;5.20;99.90
17333;DHT22;8784;50.94667800;7.08448400;2022-12-05T11:56:36;5.20;99.90
17333;DHT22;8784;50.94667800;7.08448400;2022-12-05T11:59:25;5.10;99.90
17333;DHT22;8784;50.94667800;7.08448400;2022-12-05T12:02:04;5.10;99.90
17333;DHT22;8784;50.94667800;7.08448400;2022-12-05T12:04:41;5.20;99.90
17333;DHT22;8784;50.94667800;7.08448400;2022-12-05T12:10:13;5.20;99.90
17333;DHT22;8784;50.94667800;7.08448400;2022-12-05T12:12:50;5.20;99.90
17333;DHT22;8784;50.94667800;7.08448400;2022-12-05T12:18:51;5.20;99.90
17333;DHT22;8784;50.94667800;7.08448400;2022-12-05T12:21:29;5.20;99.90
17333;DHT22;8784;50.94667800;7.08448400;2022-12-05T12:24:08;5.20;99.90
17333;DHT22;8784;50.94667800;7.08448400;2022-12-05T12:26:43;5.20;99.90
17333;DHT22;8784;50.94667800;7.08448400;2022-12-05T12:29:20;5.30;99.90
17333;DHT22;8784;50.94667800;7.08448400;2022-12-05T12:31:58;5.30;99.90
17333;DHT22;8784;50.94667800;7.08448400;2022-12-05T12:34:39;5.40;99.90
17333;DHT22;8784;50.94667800;7.08448400;2022-12-05T12:37:15;5.50;99.90
17333;DHT22;8784;50.94667800;7.08448400;2022-12-05T12:39:51;5.50;99.90
17333;DHT22;8784;50.94667800;7.08448400;2022-12-05T12:42:24;5.60;99.90
17333;DHT22;8784;50.94667800;7.08448400;2022-12-05T12:45:15;5.60;99.90
17333;DHT22;8784;50.94667800;7.08448400;2022-12-05T12:47:56;5.50;99.90
17333;DHT22;8784;50.94667800;7.08448400;2022-12-05T12:50:30;5.60;99.90
17333;DHT22;8784;50.94667800;7.08448400;2022-12-05T12:55:57;5.60;99.90
17333;DHT22;8784;50.94667800;7.08448400;2022-12-05T12:58:38;5.60;99.90
17333;DHT22;8784;50.94667800;7.08448400;2022-12-05T13:01:14;5.70;99.90
17333;DHT22;8784;50.94667800;7.08448400;2022-12-05T13:03:46;5.70;99.90
17333;DHT22;8784;50.94667800;7.08448400;2022-12-05T13:06:20;5.70;99.90
17333;DHT22;8784;50.94667800;7.08448400;2022-12-05T13:08:52;5.70;99.90
17333;DHT22;8784;50.94667800;7.08448400;2022-12-05T13:11:23;5.70;99.90
17333;DHT22;8784;50.94667800;7.08448400;2022-12-05T13:13:53;5.80;99.90
17333;DHT22;8784;50.94667800;7.08448400;2022-12-05T13:16:24;5.70;99.90
17333;DHT22;8784;50.94667800;7.08448400;2022-12-05T13:18:53;5.70;99.90
17333;DHT22;8784;50.94667800;7.08448400;2022-12-05T13:21:20;5.70;99.90
17333;DHT22;8784;50.94667800;7.08448400;2022-12-05T13:23:49;5.70;99.90
17333;DHT22;8784;50.94667800;7.08448400;2022-12-05T13:26:17;5.70;99.90
17333;DHT22;8784;50.94667800;7.08448400;2022-12-05T13:28:51;5.70;99.90
17333;DHT22;8784;50.94667800;7.08448400;2022-12-05T13:31:32;5.60;99.90
17333;DHT22;8784;50.94667800;7.08448400;2022-12-05T13:34:00;5.70;99.90
17333;DHT22;8784;50.94667800;7.08448400;2022-12-05T13:36:27;5.60;99.90
17333;DHT22;8784;50.94667800;7.08448400;2022-12-05T13:39:20;5.60;99.90
17333;DHT22;8784;50.94667800;7.08448400;2022-12-05T13:42:06;5.60;99.90
17333;DHT22;8784;50.94667800;7.08448400;2022-12-05T13:44:48;5.60;99.90
17333;DHT22;8784;50.94667800;7.08448400;2022-12-05T13:47:25;5.70;99.90
17333;DHT22;8784;50.94667800;7.08448400;2022-12-05T13:49:55;5.70;99.90
17333;DHT22;8784;50.94667800;7.08448400;2022-12-05T13:52:27;5.70;99.90
17333;DHT22;8784;50.94667800;7.08448400;2022-12-05T13:54:59;5.70;99.90
17333;DHT22;8784;50.94667800;7.08448400;2022-12-05T13:57:51;5.80;99.90
17333;DHT22;8784;50.94667800;7.08448400;2022-12-05T14:00:23;5.70;99.90
17333;DHT22;8784;50.94667800;7.08448400;2022-12-05T14:03:15;5.70;99.90
17333;DHT22;8784;50.94667800;7.08448400;2022-12-05T14:05:51;5.80;99.90
17333;DHT22;8784;50.94667800;7.08448400;2022-12-05T14:08:49;5.80;99.90
17333;DHT22;8784;50.94667800;7.08448400;2022-12-05T14:11:16;5.80;99.90
17333;DHT22;8784;50.94667800;7.08448400;2022-12-05T14:13:44;5.80;99.90
17333;DHT22;8784;50.94667800;7.08448400;2022-12-05T14:22:06;5.80;99.90
17333;DHT22;8784;50.94667800;7.08448400;2022-12-05T14:24:50;5.80;99.90
17333;DHT22;8784;50.94667800;7.08448400;2022-12-05T14:27:32;5.80;99.90